sensor_id;sensor_type;location;lat;lon;timestamp;temperature;humidity
2571;DHT22;1295;51.130;6.732;2022-09-03T00:01:13;22.00;80.20
2571;DHT22;1295;51.130;6.732;2022-09-03T00:03:37;23.10;80.40
2571;DHT22;1295;51.130;6.732;2022-09-03T00:06:09;23.30;78.20
2571;DHT22;1295;51.130;6.732;2022-09-03T00:08:37;23.40;79.70
2571;DHT22;1295;51.130;6.732;2022-09-03T00:14:06;23.60;79.20
2571;DHT22;1295;51.130;6.732;2022-09-03T00:16:33;23.60;79.50
2571;DHT22;1295;51.130;6.732;2022-09-03T00:18:56;23.80;79.40
2571;DHT22;1295;51.130;6.732;2022-09-03T00:21:29;23.80;79.30
2571;DHT22;1295;51.130;6.732;2022-09-03T00:23:48;23.80;79.30
2571;DHT22;1295;51.130;6.732;2022-09-03T00:26:17;23.80;79.30
2571;DHT22;1295;51.130;6.732;2022-09-03T00:28:44;23.80;79.30
2571;DHT22;1295;51.130;6.732;2022-09-03T00:31:13;23.80;79.30
2571;DHT22;1295;51.130;6.732;2022-09-03T00:33:36;23.70;79.40
2571;DHT22;1295;51.130;6.732;2022-09-03T00:36:11;23.60;79.40
2571;DHT22;1295;51.130;6.732;2022-09-03T00:38:37;23.60;78.80
2571;DHT22;1295;51.130;6.732;2022-09-03T00:44:03;23.20;79.30
2571;DHT22;1295;51.130;6.732;2022-09-03T00:46:30;22.30;80.50
2571;DHT22;1295;51.130;6.732;2022-09-03T00:49:05;22.30;80.40
2571;DHT22;1295;51.130;6.732;2022-09-03T00:51:32;23.00;79.70
2571;DHT22;1295;51.130;6.732;2022-09-03T00:54:00;23.00;79.40
2571;DHT22;1295;51.130;6.732;2022-09-03T00:56:29;22.60;80.80
2571;DHT22;1295;51.130;6.732;2022-09-03T00:59:43;22.60;80.70
2571;DHT22;1295;51.130;6.732;2022-09-03T01:01:56;22.30;79.80
2571;DHT22;1295;51.130;6.732;2022-09-03T01:04:24;23.00;80.10
2571;DHT22;1295;51.130;6.732;2022-09-03T01:06:56;22.40;79.80
2571;DHT22;1295;51.130;6.732;2022-09-03T01:09:43;22.30;80.80
2571;DHT22;1295;51.130;6.732;2022-09-03T01:12:20;23.00;80.30
2571;DHT22;1295;51.130;6.732;2022-09-03T01:15:07;22.60;80.60
2571;DHT22;1295;51.130;6.732;2022-09-03T01:17:38;22.00;79.70
2571;DHT22;1295;51.130;6.732;2022-09-03T01:20:14;22.00;79.70
2571;DHT22;1295;51.130;6.732;2022-09-03T01:28:18;22.70;80.90
2571;DHT22;1295;51.130;6.732;2022-09-03T01:30:48;22.70;80.80
2571;DHT22;1295;51.130;6.732;2022-09-03T01:35:53;22.00;81.80
2571;DHT22;1295;51.130;6.732;2022-09-03T01:38:24;22.20;80.50
2571;DHT22;1295;51.130;6.732;2022-09-03T01:41:04;21.20;82.70
2571;DHT22;1295;51.130;6.732;2022-09-03T01:43:40;21.80;82.60
2571;DHT22;1295;51.130;6.732;2022-09-03T01:46:08;22.00;80.50
2571;DHT22;1295;51.130;6.732;2022-09-03T01:48:44;22.30;81.30
2571;DHT22;1295;51.130;6.732;2022-09-03T01:51:20;22.40;81.30
2571;DHT22;1295;51.130;6.732;2022-09-03T01:59:04;21.70;82.70
2571;DHT22;1295;51.130;6.732;2022-09-03T02:01:33;22.30;81.30
2571;DHT22;1295;51.130;6.732;2022-09-03T02:03:57;22.30;81.40
2571;DHT22;1295;51.130;6.732;2022-09-03T02:06:23;22.40;81.00
2571;DHT22;1295;51.130;6.732;2022-09-03T02:08:49;22.50;81.30
2571;DHT22;1295;51.130;6.732;2022-09-03T02:11:14;21.50;82.00
2571;DHT22;1295;51.130;6.732;2022-09-03T02:13:41;22.10;81.70
2571;DHT22;1295;51.130;6.732;2022-09-03T02:16:22;22.40;81.30
2571;DHT22;1295;51.130;6.732;2022-09-03T02:18:49;22.10;81.50
2571;DHT22;1295;51.130;6.732;2022-09-03T02:21:14;22.40;81.40
2571;DHT22;1295;51.130;6.732;2022-09-03T02:23:39;21.90;81.80
2571;DHT22;1295;51.130;6.732;2022-09-03T02:26:04;22.60;81.30
2571;DHT22;1295;51.130;6.732;2022-09-03T02:28:31;21.70;83.00
2571;DHT22;1295;51.130;6.732;2022-09-03T02:30:56;21.70;82.20
2571;DHT22;1295;51.130;6.732;2022-09-03T02:33:23;22.80;81.30
2571;DHT22;1295;51.130;6.732;2022-09-03T02:35:49;22.80;81.20
2571;DHT22;1295;51.130;6.732;2022-09-03T02:38:16;22.70;80.90
2571;DHT22;1295;51.130;6.732;2022-09-03T02:40:42;22.50;81.70
2571;DHT22;1295;51.130;6.732;2022-09-03T02:43:09;22.50;81.70
2571;DHT22;1295;51.130;6.732;2022-09-03T02:45:33;21.70;82.00
2571;DHT22;1295;51.130;6.732;2022-09-03T02:47:59;21.50;83.20
2571;DHT22;1295;51.130;6.732;2022-09-03T02:50:25;22.30;82.00
2571;DHT22;1295;51.130;6.732;2022-09-03T02:52:51;22.70;80.90
2571;DHT22;1295;51.130;6.732;2022-09-03T02:55:17;22.70;81.50
2571;DHT22;1295;51.130;6.732;2022-09-03T02:57:43;22.40;81.40
2571;DHT22;1295;51.130;6.732;2022-09-03T03:00:10;22.70;81.70
2571;DHT22;1295;51.130;6.732;2022-09-03T03:02:36;22.60;81.60
2571;DHT22;1295;51.130;6.732;2022-09-03T03:05:02;22.50;81.70
2571;DHT22;1295;51.130;6.732;2022-09-03T03:07:32;22.40;81.50
2571;DHT22;1295;51.130;6.732;2022-09-03T03:09:54;22.40;81.50
2571;DHT22;1295;51.130;6.732;2022-09-03T03:12:20;22.50;81.40
2571;DHT22;1295;51.130;6.732;2022-09-03T03:14:45;22.40;81.80
2571;DHT22;1295;51.130;6.732;2022-09-03T03:17:11;22.40;81.70
2571;DHT22;1295;51.130;6.732;2022-09-03T03:19:37;21.70;83.10
2571;DHT22;1295;51.130;6.732;2022-09-03T03:22:03;21.70;82.90
2571;DHT22;1295;51.130;6.732;2022-09-03T03:24:30;21.90;83.10
2571;DHT22;1295;51.130;6.732;2022-09-03T03:26:55;21.90;82.70
2571;DHT22;1295;51.130;6.732;2022-09-03T03:29:22;21.50;83.60
2571;DHT22;1295;51.130;6.732;2022-09-03T03:31:48;21.50;83.10
2571;DHT22;1295;51.130;6.732;2022-09-03T03:34:14;21.50;83.00
2571;DHT22;1295;51.130;6.732;2022-09-03T03:36:39;21.60;83.00
2571;DHT22;1295;51.130;6.732;2022-09-03T03:39:06;21.50;82.00
2571;DHT22;1295;51.130;6.732;2022-09-03T03:41:32;21.50;82.00
2571;DHT22;1295;51.130;6.732;2022-09-03T03:43:58;22.20;82.10
2571;DHT22;1295;51.130;6.732;2022-09-03T03:46:23;21.10;81.40
2571;DHT22;1295;51.130;6.732;2022-09-03T03:48:49;21.60;83.10
2571;DHT22;1295;51.130;6.732;2022-09-03T03:51:14;22.00;82.30
2571;DHT22;1295;51.130;6.732;2022-09-03T03:53:40;22.00;82.10
2571;DHT22;1295;51.130;6.732;2022-09-03T03:56:07;20.90;83.50
2571;DHT22;1295;51.130;6.732;2022-09-03T03:58:32;20.90;83.50
2571;DHT22;1295;51.130;6.732;2022-09-03T04:01:04;21.50;83.10
2571;DHT22;1295;51.130;6.732;2022-09-03T04:03:29;21.90;82.30
2571;DHT22;1295;51.130;6.732;2022-09-03T04:05:55;21.10;83.30
2571;DHT22;1295;51.130;6.732;2022-09-03T04:08:21;21.80;82.70
2571;DHT22;1295;51.130;6.732;2022-09-03T04:10:46;22.00;82.20
2571;DHT22;1295;51.130;6.732;2022-09-03T04:13:13;21.00;83.70
2571;DHT22;1295;51.130;6.732;2022-09-03T04:15:39;21.00;83.70
2571;DHT22;1295;51.130;6.732;2022-09-03T04:18:04;20.50;83.00
2571;DHT22;1295;51.130;6.732;2022-09-03T04:20:30;21.10;84.00
2571;DHT22;1295;51.130;6.732;2022-09-03T04:22:59;22.00;82.70
2571;DHT22;1295;51.130;6.732;2022-09-03T04:25:22;22.20;82.00
2571;DHT22;1295;51.130;6.732;2022-09-03T04:27:49;22.20;82.00
2571;DHT22;1295;51.130;6.732;2022-09-03T04:30:13;22.10;82.20
2571;DHT22;1295;51.130;6.732;2022-09-03T04:32:39;22.20;82.00
2571;DHT22;1295;51.130;6.732;2022-09-03T04:35:11;22.20;82.10
2571;DHT22;1295;51.130;6.732;2022-09-03T04:37:36;21.60;82.70
2571;DHT22;1295;51.130;6.732;2022-09-03T04:40:03;22.00;82.60
2571;DHT22;1295;51.130;6.732;2022-09-03T04:42:29;22.10;82.20
2571;DHT22;1295;51.130;6.732;2022-09-03T04:44:54;22.00;82.40
2571;DHT22;1295;51.130;6.732;2022-09-03T04:47:20;22.10;82.20
2571;DHT22;1295;51.130;6.732;2022-09-03T04:49:46;22.10;82.40
2571;DHT22;1295;51.130;6.732;2022-09-03T04:52:12;21.20;83.50
2571;DHT22;1295;51.130;6.732;2022-09-03T04:54:38;21.20;83.50
2571;DHT22;1295;51.130;6.732;2022-09-03T04:57:03;21.80;83.10
2571;DHT22;1295;51.130;6.732;2022-09-03T04:59:29;22.10;82.60
2571;DHT22;1295;51.130;6.732;2022-09-03T05:01:55;22.20;82.30
2571;DHT22;1295;51.130;6.732;2022-09-03T05:04:20;22.20;82.40
2571;DHT22;1295;51.130;6.732;2022-09-03T05:06:46;22.20;82.50
2571;DHT22;1295;51.130;6.732;2022-09-03T05:09:12;22.10;82.60
2571;DHT22;1295;51.130;6.732;2022-09-03T05:11:37;22.20;82.60
2571;DHT22;1295;51.130;6.732;2022-09-03T05:14:03;21.60;83.40
2571;DHT22;1295;51.130;6.732;2022-09-03T05:16:29;22.00;83.10
2571;DHT22;1295;51.130;6.732;2022-09-03T05:18:55;22.10;82.80
2571;DHT22;1295;51.130;6.732;2022-09-03T05:21:20;22.10;82.90
2571;DHT22;1295;51.130;6.732;2022-09-03T05:23:48;22.10;82.90
2571;DHT22;1295;51.130;6.732;2022-09-03T05:26:14;22.00;82.70
2571;DHT22;1295;51.130;6.732;2022-09-03T05:28:39;21.90;83.20
2571;DHT22;1295;51.130;6.732;2022-09-03T05:31:07;21.80;84.10
2571;DHT22;1295;51.130;6.732;2022-09-03T05:33:34;21.80;83.70
2571;DHT22;1295;51.130;6.732;2022-09-03T05:36:00;22.00;83.30
2571;DHT22;1295;51.130;6.732;2022-09-03T05:38:26;21.90;83.50
2571;DHT22;1295;51.130;6.732;2022-09-03T05:40:52;21.90;83.50
2571;DHT22;1295;51.130;6.732;2022-09-03T05:43:18;21.90;83.40
2571;DHT22;1295;51.130;6.732;2022-09-03T05:45:43;20.60;84.50
2571;DHT22;1295;51.130;6.732;2022-09-03T05:48:09;21.20;84.60
2571;DHT22;1295;51.130;6.732;2022-09-03T05:50:35;21.40;84.30
2571;DHT22;1295;51.130;6.732;2022-09-03T05:53:02;19.70;86.60
2571;DHT22;1295;51.130;6.732;2022-09-03T05:55:27;19.70;86.00
2571;DHT22;1295;51.130;6.732;2022-09-03T05:57:53;20.80;85.90
2571;DHT22;1295;51.130;6.732;2022-09-03T06:00:19;21.40;84.40
2571;DHT22;1295;51.130;6.732;2022-09-03T06:02:50;21.40;84.80
2571;DHT22;1295;51.130;6.732;2022-09-03T06:05:16;21.40;84.50
2571;DHT22;1295;51.130;6.732;2022-09-03T06:07:41;21.10;85.00
2571;DHT22;1295;51.130;6.732;2022-09-03T06:10:08;21.40;84.70
2571;DHT22;1295;51.130;6.732;2022-09-03T06:12:34;21.40;84.80
2571;DHT22;1295;51.130;6.732;2022-09-03T06:15:00;21.30;85.10
2571;DHT22;1295;51.130;6.732;2022-09-03T06:17:26;21.30;85.00
2571;DHT22;1295;51.130;6.732;2022-09-03T06:19:51;21.20;85.30
2571;DHT22;1295;51.130;6.732;2022-09-03T06:22:17;20.80;85.60
2571;DHT22;1295;51.130;6.732;2022-09-03T06:24:43;20.90;85.90
2571;DHT22;1295;51.130;6.732;2022-09-03T06:27:09;21.00;86.10
2571;DHT22;1295;51.130;6.732;2022-09-03T06:29:34;20.80;86.00
2571;DHT22;1295;51.130;6.732;2022-09-03T06:32:01;20.80;86.30
2571;DHT22;1295;51.130;6.732;2022-09-03T06:34:27;20.80;86.60
2571;DHT22;1295;51.130;6.732;2022-09-03T06:36:53;21.30;85.60
2571;DHT22;1295;51.130;6.732;2022-09-03T06:39:18;21.20;86.40
2571;DHT22;1295;51.130;6.732;2022-09-03T06:41:45;20.70;86.40
2571;DHT22;1295;51.130;6.732;2022-09-03T06:44:11;20.70;86.40
2571;DHT22;1295;51.130;6.732;2022-09-03T06:46:37;20.50;87.30
2571;DHT22;1295;51.130;6.732;2022-09-03T06:49:02;21.10;86.80
2571;DHT22;1295;51.130;6.732;2022-09-03T06:51:28;21.10;86.70
2571;DHT22;1295;51.130;6.732;2022-09-03T06:53:58;21.40;85.90
2571;DHT22;1295;51.130;6.732;2022-09-03T06:56:20;21.20;86.20
2571;DHT22;1295;51.130;6.732;2022-09-03T06:58:45;21.20;86.10
2571;DHT22;1295;51.130;6.732;2022-09-03T07:01:12;21.40;86.30
2571;DHT22;1295;51.130;6.732;2022-09-03T07:03:38;20.80;86.40
2571;DHT22;1295;51.130;6.732;2022-09-03T07:06:04;20.60;87.70
2571;DHT22;1295;51.130;6.732;2022-09-03T07:08:31;20.60;87.50
2571;DHT22;1295;51.130;6.732;2022-09-03T07:10:56;20.60;87.40
2571;DHT22;1295;51.130;6.732;2022-09-03T07:13:22;21.20;86.90
2571;DHT22;1295;51.130;6.732;2022-09-03T07:15:47;21.10;86.80
2571;DHT22;1295;51.130;6.732;2022-09-03T07:18:13;21.30;86.50
2571;DHT22;1295;51.130;6.732;2022-09-03T07:20:39;21.20;87.20
2571;DHT22;1295;51.130;6.732;2022-09-03T07:23:05;21.10;86.60
2571;DHT22;1295;51.130;6.732;2022-09-03T07:25:31;21.30;86.70
2571;DHT22;1295;51.130;6.732;2022-09-03T07:27:56;20.80;86.80
2571;DHT22;1295;51.130;6.732;2022-09-03T07:30:22;21.20;87.70
2571;DHT22;1295;51.130;6.732;2022-09-03T07:32:48;21.20;86.90
2571;DHT22;1295;51.130;6.732;2022-09-03T07:35:13;21.40;86.50
2571;DHT22;1295;51.130;6.732;2022-09-03T07:37:40;21.40;86.60
2571;DHT22;1295;51.130;6.732;2022-09-03T07:40:06;21.50;86.20
2571;DHT22;1295;51.130;6.732;2022-09-03T07:42:31;21.40;86.20
2571;DHT22;1295;51.130;6.732;2022-09-03T07:44:58;21.40;86.70
2571;DHT22;1295;51.130;6.732;2022-09-03T07:47:24;21.30;86.50
2571;DHT22;1295;51.130;6.732;2022-09-03T07:49:49;21.50;86.20
2571;DHT22;1295;51.130;6.732;2022-09-03T07:52:15;21.40;86.80
2571;DHT22;1295;51.130;6.732;2022-09-03T07:54:41;21.50;86.40
2571;DHT22;1295;51.130;6.732;2022-09-03T07:57:06;21.70;86.30
2571;DHT22;1295;51.130;6.732;2022-09-03T07:59:33;22.00;86.00
2571;DHT22;1295;51.130;6.732;2022-09-03T08:01:58;22.00;86.40
2571;DHT22;1295;51.130;6.732;2022-09-03T08:04:30;22.00;86.90
2571;DHT22;1295;51.130;6.732;2022-09-03T08:06:56;22.00;86.90
2571;DHT22;1295;51.130;6.732;2022-09-03T08:09:22;21.70;86.60
2571;DHT22;1295;51.130;6.732;2022-09-03T08:11:47;22.00;86.60
2571;DHT22;1295;51.130;6.732;2022-09-03T08:14:13;22.00;86.10
2571;DHT22;1295;51.130;6.732;2022-09-03T08:16:40;21.90;86.60
2571;DHT22;1295;51.130;6.732;2022-09-03T08:19:04;21.90;86.40
2571;DHT22;1295;51.130;6.732;2022-09-03T08:21:30;21.90;86.40
2571;DHT22;1295;51.130;6.732;2022-09-03T08:23:56;21.80;86.60
2571;DHT22;1295;51.130;6.732;2022-09-03T08:26:32;21.90;86.80
2571;DHT22;1295;51.130;6.732;2022-09-03T08:28:58;21.90;85.80
2571;DHT22;1295;51.130;6.732;2022-09-03T08:31:23;21.90;86.40
2571;DHT22;1295;51.130;6.732;2022-09-03T08:33:50;22.00;87.00
2571;DHT22;1295;51.130;6.732;2022-09-03T08:36:16;22.00;87.10
2571;DHT22;1295;51.130;6.732;2022-09-03T08:38:42;22.20;86.60
2571;DHT22;1295;51.130;6.732;2022-09-03T08:41:12;22.20;86.80
2571;DHT22;1295;51.130;6.732;2022-09-03T08:43:42;22.10;86.40
2571;DHT22;1295;51.130;6.732;2022-09-03T08:46:03;22.10;86.50
2571;DHT22;1295;51.130;6.732;2022-09-03T08:48:28;22.20;86.60
2571;DHT22;1295;51.130;6.732;2022-09-03T08:50:55;22.20;86.60
2571;DHT22;1295;51.130;6.732;2022-09-03T08:53:30;22.50;87.30
2571;DHT22;1295;51.130;6.732;2022-09-03T08:55:55;22.50;87.20
2571;DHT22;1295;51.130;6.732;2022-09-03T08:58:21;22.70;87.20
2571;DHT22;1295;51.130;6.732;2022-09-03T09:00:51;23.30;88.00
2571;DHT22;1295;51.130;6.732;2022-09-03T09:04:03;23.40;85.60
2571;DHT22;1295;51.130;6.732;2022-09-03T09:06:30;23.10;86.40
2571;DHT22;1295;51.130;6.732;2022-09-03T09:09:02;23.40;85.80
2571;DHT22;1295;51.130;6.732;2022-09-03T09:11:49;23.50;86.70
2571;DHT22;1295;51.130;6.732;2022-09-03T09:14:34;23.50;86.70
2571;DHT22;1295;51.130;6.732;2022-09-03T09:17:03;23.30;86.60
2571;DHT22;1295;51.130;6.732;2022-09-03T09:19:34;23.60;86.40
2571;DHT22;1295;51.130;6.732;2022-09-03T09:21:59;23.70;87.50
2571;DHT22;1295;51.130;6.732;2022-09-03T09:24:24;23.70;86.80
2571;DHT22;1295;51.130;6.732;2022-09-03T09:26:50;23.50;86.80
2571;DHT22;1295;51.130;6.732;2022-09-03T09:29:14;23.60;86.80
2571;DHT22;1295;51.130;6.732;2022-09-03T09:31:40;23.80;86.70
2571;DHT22;1295;51.130;6.732;2022-09-03T09:34:06;23.70;86.50
2571;DHT22;1295;51.130;6.732;2022-09-03T09:36:34;23.20;87.70
2571;DHT22;1295;51.130;6.732;2022-09-03T09:39:06;23.30;87.60
2571;DHT22;1295;51.130;6.732;2022-09-03T09:41:23;23.30;87.60
2571;DHT22;1295;51.130;6.732;2022-09-03T09:43:58;23.40;87.70
2571;DHT22;1295;51.130;6.732;2022-09-03T09:46:19;23.40;88.10
2571;DHT22;1295;51.130;6.732;2022-09-03T09:48:53;23.60;87.70
2571;DHT22;1295;51.130;6.732;2022-09-03T09:51:20;23.60;88.70
2571;DHT22;1295;51.130;6.732;2022-09-03T09:53:44;23.40;88.40
2571;DHT22;1295;51.130;6.732;2022-09-03T09:56:20;23.40;88.00
2571;DHT22;1295;51.130;6.732;2022-09-03T09:58:45;23.60;89.10
2571;DHT22;1295;51.130;6.732;2022-09-03T10:01:14;23.50;87.70
2571;DHT22;1295;51.130;6.732;2022-09-03T10:03:54;23.40;87.60
2571;DHT22;1295;51.130;6.732;2022-09-03T10:06:21;23.70;87.70
2571;DHT22;1295;51.130;6.732;2022-09-03T10:08:53;23.90;89.50
2571;DHT22;1295;51.130;6.732;2022-09-03T10:11:17;23.90;89.50
2571;DHT22;1295;51.130;6.732;2022-09-03T10:13:44;23.50;89.10
2571;DHT22;1295;51.130;6.732;2022-09-03T10:16:26;23.70;89.00
2571;DHT22;1295;51.130;6.732;2022-09-03T10:19:01;23.70;88.90
2571;DHT22;1295;51.130;6.732;2022-09-03T10:21:29;23.90;89.10
2571;DHT22;1295;51.130;6.732;2022-09-03T10:26:30;23.70;88.80
2571;DHT22;1295;51.130;6.732;2022-09-03T10:28:57;23.90;89.30
2571;DHT22;1295;51.130;6.732;2022-09-03T10:34:15;24.20;89.40
2571;DHT22;1295;51.130;6.732;2022-09-03T10:36:39;24.10;88.70
2571;DHT22;1295;51.130;6.732;2022-09-03T10:39:10;23.80;88.50
2571;DHT22;1295;51.130;6.732;2022-09-03T10:41:39;23.90;89.40
2571;DHT22;1295;51.130;6.732;2022-09-03T10:44:44;23.90;88.70
2571;DHT22;1295;51.130;6.732;2022-09-03T10:46:55;24.10;89.10
2571;DHT22;1295;51.130;6.732;2022-09-03T10:52:19;24.40;89.40
2571;DHT22;1295;51.130;6.732;2022-09-03T10:55:57;24.30;90.20
2571;DHT22;1295;51.130;6.732;2022-09-03T10:57:58;24.10;89.30
2571;DHT22;1295;51.130;6.732;2022-09-03T11:00:19;24.10;89.10
2571;DHT22;1295;51.130;6.732;2022-09-03T11:05:31;24.50;90.30
2571;DHT22;1295;51.130;6.732;2022-09-03T11:08:00;24.70;90.20
2571;DHT22;1295;51.130;6.732;2022-09-03T11:10:28;24.00;91.30
2571;DHT22;1295;51.130;6.732;2022-09-03T11:13:08;23.90;91.10
2571;DHT22;1295;51.130;6.732;2022-09-03T11:16:10;24.00;90.50
2571;DHT22;1295;51.130;6.732;2022-09-03T11:18:19;24.00;90.30
2571;DHT22;1295;51.130;6.732;2022-09-03T11:20:44;24.20;90.60
2571;DHT22;1295;51.130;6.732;2022-09-03T11:23:09;24.20;90.60
2571;DHT22;1295;51.130;6.732;2022-09-03T11:25:39;24.10;90.80
2571;DHT22;1295;51.130;6.732;2022-09-03T11:28:27;24.30;90.90
2571;DHT22;1295;51.130;6.732;2022-09-03T11:31:05;23.90;91.60
2571;DHT22;1295;51.130;6.732;2022-09-03T11:33:28;24.30;91.10
2571;DHT22;1295;51.130;6.732;2022-09-03T11:35:55;24.40;91.10
2571;DHT22;1295;51.130;6.732;2022-09-03T11:38:21;24.40;90.40
2571;DHT22;1295;51.130;6.732;2022-09-03T11:40:58;24.40;90.60
2571;DHT22;1295;51.130;6.732;2022-09-03T11:43:26;24.90;90.20
2571;DHT22;1295;51.130;6.732;2022-09-03T11:46:32;24.50;91.50
2571;DHT22;1295;51.130;6.732;2022-09-03T11:48:44;24.40;90.50
2571;DHT22;1295;51.130;6.732;2022-09-03T11:51:19;24.10;90.40
2571;DHT22;1295;51.130;6.732;2022-09-03T11:53:52;24.40;91.40
2571;DHT22;1295;51.130;6.732;2022-09-03T11:56:17;24.60;90.90
2571;DHT22;1295;51.130;6.732;2022-09-03T11:58:43;25.00;92.40
2571;DHT22;1295;51.130;6.732;2022-09-03T12:01:10;25.00;92.50
2571;DHT22;1295;51.130;6.732;2022-09-03T12:03:44;24.90;92.30
2571;DHT22;1295;51.130;6.732;2022-09-03T12:09:10;25.00;90.70
2571;DHT22;1295;51.130;6.732;2022-09-03T12:11:47;25.60;91.70
2571;DHT22;1295;51.130;6.732;2022-09-03T12:14:12;25.10;92.40
2571;DHT22;1295;51.130;6.732;2022-09-03T12:19:34;24.90;92.50
2571;DHT22;1295;51.130;6.732;2022-09-03T12:21:56;24.70;92.00
2571;DHT22;1295;51.130;6.732;2022-09-03T12:24:24;24.70;91.90
2571;DHT22;1295;51.130;6.732;2022-09-03T12:26:48;24.80;91.90
2571;DHT22;1295;51.130;6.732;2022-09-03T12:29:21;24.70;91.60
2571;DHT22;1295;51.130;6.732;2022-09-03T12:31:47;24.60;92.30
2571;DHT22;1295;51.130;6.732;2022-09-03T12:34:14;24.50;92.20
2571;DHT22;1295;51.130;6.732;2022-09-03T12:36:40;24.80;92.10
2571;DHT22;1295;51.130;6.732;2022-09-03T12:39:07;25.00;93.10
2571;DHT22;1295;51.130;6.732;2022-09-03T12:41:32;25.00;92.20
2571;DHT22;1295;51.130;6.732;2022-09-03T12:43:58;24.80;93.00
2571;DHT22;1295;51.130;6.732;2022-09-03T12:46:25;25.20;92.00
2571;DHT22;1295;51.130;6.732;2022-09-03T12:48:54;25.30;92.70
2571;DHT22;1295;51.130;6.732;2022-09-03T12:51:20;25.40;91.50
2571;DHT22;1295;51.130;6.732;2022-09-03T12:53:46;25.40;91.50
2571;DHT22;1295;51.130;6.732;2022-09-03T12:56:12;25.30;91.80
2571;DHT22;1295;51.130;6.732;2022-09-03T12:58:41;25.30;92.20
2571;DHT22;1295;51.130;6.732;2022-09-03T13:01:08;25.30;92.20
2571;DHT22;1295;51.130;6.732;2022-09-03T13:06:23;25.60;92.00
2571;DHT22;1295;51.130;6.732;2022-09-03T13:08:49;25.10;93.40
2571;DHT22;1295;51.130;6.732;2022-09-03T13:11:17;24.90;92.50
2571;DHT22;1295;51.130;6.732;2022-09-03T13:13:47;24.90;92.60
2571;DHT22;1295;51.130;6.732;2022-09-03T13:16:16;25.50;92.10
2571;DHT22;1295;51.130;6.732;2022-09-03T13:18:52;25.50;92.10
2571;DHT22;1295;51.130;6.732;2022-09-03T13:21:15;25.30;93.50
2571;DHT22;1295;51.130;6.732;2022-09-03T13:23:48;25.60;93.60
2571;DHT22;1295;51.130;6.732;2022-09-03T13:26:35;25.20;93.80
2571;DHT22;1295;51.130;6.732;2022-09-03T13:29:22;25.50;93.60
2571;DHT22;1295;51.130;6.732;2022-09-03T13:31:46;25.70;93.20
2571;DHT22;1295;51.130;6.732;2022-09-03T13:34:15;25.70;92.30
2571;DHT22;1295;51.130;6.732;2022-09-03T13:36:52;25.50;93.20
2571;DHT22;1295;51.130;6.732;2022-09-03T13:39:21;25.60;92.90
2571;DHT22;1295;51.130;6.732;2022-09-03T13:41:48;25.40;92.90
2571;DHT22;1295;51.130;6.732;2022-09-03T13:44:15;25.10;92.70
2571;DHT22;1295;51.130;6.732;2022-09-03T13:46:51;25.30;92.50
2571;DHT22;1295;51.130;6.732;2022-09-03T13:49:26;25.80;92.40
2571;DHT22;1295;51.130;6.732;2022-09-03T13:52:07;25.80;92.60
2571;DHT22;1295;51.130;6.732;2022-09-03T13:54:33;25.60;92.50
2571;DHT22;1295;51.130;6.732;2022-09-03T13:57:01;24.90;92.80
2571;DHT22;1295;51.130;6.732;2022-09-03T14:02:10;25.20;93.00
2571;DHT22;1295;51.130;6.732;2022-09-03T14:04:39;25.40;92.70
2571;DHT22;1295;51.130;6.732;2022-09-03T14:07:02;25.20;92.40
2571;DHT22;1295;51.130;6.732;2022-09-03T14:09:29;25.20;92.80
2571;DHT22;1295;51.130;6.732;2022-09-03T14:11:55;25.10;92.50
2571;DHT22;1295;51.130;6.732;2022-09-03T14:14:30;24.90;92.40
2571;DHT22;1295;51.130;6.732;2022-09-03T14:17:01;24.90;92.70
2571;DHT22;1295;51.130;6.732;2022-09-03T14:19:42;24.70;92.90
2571;DHT22;1295;51.130;6.732;2022-09-03T14:22:08;24.90;92.70
2571;DHT22;1295;51.130;6.732;2022-09-03T14:24:47;25.50;92.80
2571;DHT22;1295;51.130;6.732;2022-09-03T14:27:21;25.50;92.70
2571;DHT22;1295;51.130;6.732;2022-09-03T14:29:48;25.70;92.40
2571;DHT22;1295;51.130;6.732;2022-09-03T14:32:29;26.00;91.80
2571;DHT22;1295;51.130;6.732;2022-09-03T14:35:25;25.50;92.00
2571;DHT22;1295;51.130;6.732;2022-09-03T14:38:05;25.40;92.20
2571;DHT22;1295;51.130;6.732;2022-09-03T14:40:42;25.20;92.40
2571;DHT22;1295;51.130;6.732;2022-09-03T14:43:30;25.30;92.70
2571;DHT22;1295;51.130;6.732;2022-09-03T14:49:07;25.90;92.20
2571;DHT22;1295;51.130;6.732;2022-09-03T14:51:50;25.40;92.80
2571;DHT22;1295;51.130;6.732;2022-09-03T14:57:12;25.30;92.40
2571;DHT22;1295;51.130;6.732;2022-09-03T14:59:50;25.70;92.60
2571;DHT22;1295;51.130;6.732;2022-09-03T15:02:51;26.00;91.90
2571;DHT22;1295;51.130;6.732;2022-09-03T15:10:56;25.70;92.30
2571;DHT22;1295;51.130;6.732;2022-09-03T15:13:26;25.60;92.40
2571;DHT22;1295;51.130;6.732;2022-09-03T15:15:53;25.70;92.40
2571;DHT22;1295;51.130;6.732;2022-09-03T15:21:40;25.40;92.20
2571;DHT22;1295;51.130;6.732;2022-09-03T15:24:12;25.20;92.60
2571;DHT22;1295;51.130;6.732;2022-09-03T15:26:55;25.10;92.60
2571;DHT22;1295;51.130;6.732;2022-09-03T15:29:26;25.70;92.90
2571;DHT22;1295;51.130;6.732;2022-09-03T15:31:54;26.10;92.20
2571;DHT22;1295;51.130;6.732;2022-09-03T15:34:30;25.60;92.30
2571;DHT22;1295;51.130;6.732;2022-09-03T15:36:50;25.50;92.30
2571;DHT22;1295;51.130;6.732;2022-09-03T15:39:19;25.70;92.80
2571;DHT22;1295;51.130;6.732;2022-09-03T15:41:46;26.10;92.00
2571;DHT22;1295;51.130;6.732;2022-09-03T15:44:11;26.00;92.90
2571;DHT22;1295;51.130;6.732;2022-09-03T15:46:48;26.20;92.30
2571;DHT22;1295;51.130;6.732;2022-09-03T15:49:25;26.10;92.70
2571;DHT22;1295;51.130;6.732;2022-09-03T15:52:07;25.80;92.60
2571;DHT22;1295;51.130;6.732;2022-09-03T15:57:24;25.60;92.70
2571;DHT22;1295;51.130;6.732;2022-09-03T15:59:52;25.60;92.60
2571;DHT22;1295;51.130;6.732;2022-09-03T16:02:17;25.60;92.50
2571;DHT22;1295;51.130;6.732;2022-09-03T16:05:06;25.60;93.10
2571;DHT22;1295;51.130;6.732;2022-09-03T16:07:48;25.60;93.10
2571;DHT22;1295;51.130;6.732;2022-09-03T16:10:13;25.70;92.60
2571;DHT22;1295;51.130;6.732;2022-09-03T16:12:48;25.60;92.60
2571;DHT22;1295;51.130;6.732;2022-09-03T16:15:12;25.50;92.80
2571;DHT22;1295;51.130;6.732;2022-09-03T16:17:42;25.40;92.70
2571;DHT22;1295;51.130;6.732;2022-09-03T16:20:07;25.80;92.90
2571;DHT22;1295;51.130;6.732;2022-09-03T16:22:39;25.80;92.60
2571;DHT22;1295;51.130;6.732;2022-09-03T16:25:07;25.70;92.70
2571;DHT22;1295;51.130;6.732;2022-09-03T16:27:34;25.60;92.60
2571;DHT22;1295;51.130;6.732;2022-09-03T16:30:21;25.70;92.60
2571;DHT22;1295;51.130;6.732;2022-09-03T16:32:53;25.60;92.90
2571;DHT22;1295;51.130;6.732;2022-09-03T16:35:25;25.60;92.90
2571;DHT22;1295;51.130;6.732;2022-09-03T16:38:04;25.70;92.80
2571;DHT22;1295;51.130;6.732;2022-09-03T16:40:36;25.60;93.10
2571;DHT22;1295;51.130;6.732;2022-09-03T16:43:08;25.60;93.00
2571;DHT22;1295;51.130;6.732;2022-09-03T16:45:49;25.60;92.90
2571;DHT22;1295;51.130;6.732;2022-09-03T16:51:05;25.70;92.90
2571;DHT22;1295;51.130;6.732;2022-09-03T16:53:34;25.80;93.10
2571;DHT22;1295;51.130;6.732;2022-09-03T16:56:12;25.80;93.10
2571;DHT22;1295;51.130;6.732;2022-09-03T16:58:39;25.80;93.00
2571;DHT22;1295;51.130;6.732;2022-09-03T17:01:32;25.60;93.50
2571;DHT22;1295;51.130;6.732;2022-09-03T17:04:30;25.60;93.90
2571;DHT22;1295;51.130;6.732;2022-09-03T17:09:18;25.40;93.80
2571;DHT22;1295;51.130;6.732;2022-09-03T17:11:47;25.30;93.70
2571;DHT22;1295;51.130;6.732;2022-09-03T17:14:49;25.20;94.20
2571;DHT22;1295;51.130;6.732;2022-09-03T17:22:42;25.10;94.40
2571;DHT22;1295;51.130;6.732;2022-09-03T17:25:06;25.20;94.00